Time;durP1;ratioP1;P1;durP2;ratioP2;P2;SDS_P1;SDS_P2;PMS_P1;PMS_P2;Temp;Humidity;BMP_temperature;BMP_pressure;BME280_temperature;BME280_humidity;BME280_pressure;Samples;Min_cycle;Max_cycle;Signal;HPM_P1;HPM_P2
2023/04/19 00:01:56;;;;;;;17.27;12.93;;;8.80;99.90;;;;;;5012204;28;20065;-64
2023/04/19 00:04:22;;;;;;;17.67;12.75;;;8.80;99.90;;;;;;5012151;28;20110;-65
2023/04/19 00:06:50;;;;;;;17.27;13.23;;;8.90;99.90;;;;;;4994535;28;20075;-65
2023/04/19 00:09:17;;;;;;;18.50;12.15;;;8.90;99.90;;;;;;4994456;28;20488;-64
2023/04/19 00:11:43;;;;;;;18.98;13.10;;;8.90;99.90;;;;;;5010933;28;20109;-65
2023/04/19 00:14:09;;;;;;;15.50;11.93;;;8.90;99.90;;;;;;5011493;28;20138;-64
2023/04/19 00:16:35;;;;;;;20.23;13.75;;;8.80;99.90;;;;;;4992101;28;20054;-64
2023/04/19 00:19:02;;;;;;;17.40;13.63;;;8.90;99.90;;;;;;4996663;28;20108;-65
2023/04/19 00:21:30;;;;;;;16.98;13.63;;;8.80;99.90;;;;;;4997196;28;20085;-65
2023/04/19 00:23:56;;;;;;;18.00;13.90;;;8.80;99.90;;;;;;4979093;28;20431;-65
2023/04/19 00:26:22;;;;;;;17.10;13.70;;;8.80;99.90;;;;;;4978604;28;20088;-64
2023/04/19 00:28:48;;;;;;;17.73;13.80;;;8.80;99.90;;;;;;4995933;28;20089;-65
2023/04/19 00:31:15;;;;;;;18.20;13.25;;;8.80;99.90;;;;;;4995874;28;20125;-64
2023/04/19 00:33:41;;;;;;;22.45;14.98;;;8.80;99.90;;;;;;4995886;28;20054;-65
2023/04/19 00:36:08;;;;;;;17.55;14.27;;;8.70;99.90;;;;;;4994749;28;20054;-65
2023/04/19 00:38:34;;;;;;;15.07;12.85;;;8.70;99.90;;;;;;4994754;28;20046;-64
2023/04/19 00:41:01;;;;;;;17.42;13.43;;;8.60;99.90;;;;;;4995011;28;20278;-65
2023/04/19 00:43:27;;;;;;;18.77;14.13;;;8.70;99.90;;;;;;4995563;28;20517;-65
2023/04/19 00:45:53;;;;;;;18.95;13.27;;;8.70;99.90;;;;;;4996110;28;20046;-65
2023/04/19 00:48:20;;;;;;;17.75;13.73;;;8.60;99.90;;;;;;4995935;28;20057;-65
2023/04/19 00:50:46;;;;;;;16.85;12.98;;;8.50;99.90;;;;;;4995499;28;20443;-64
2023/04/19 00:53:12;;;;;;;17.73;12.90;;;8.60;99.90;;;;;;4995581;28;20078;-65
2023/04/19 00:55:39;;;;;;;16.63;13.55;;;8.50;99.90;;;;;;4995492;28;20060;-65
2023/04/19 00:58:07;;;;;;;19.23;14.73;;;8.50;99.90;;;;;;4994430;28;20136;-64
2023/04/19 01:00:34;;;;;;;14.93;12.25;;;8.50;99.90;;;;;;4995274;28;20372;-64
2023/04/19 01:03:01;;;;;;;14.07;11.68;;;8.50;99.90;;;;;;4995821;28;20060;-64
2023/04/19 01:05:27;;;;;;;16.92;11.75;;;8.40;99.90;;;;;;4995121;28;20086;-64
2023/04/19 01:07:53;;;;;;;16.42;11.40;;;8.40;99.90;;;;;;4995304;28;20108;-65
2023/04/19 01:10:19;;;;;;;15.80;12.68;;;8.40;99.90;;;;;;4995045;28;20050;-64
2023/04/19 01:12:45;;;;;;;15.13;11.57;;;8.30;99.90;;;;;;4977725;28;20180;-65
2023/04/19 01:15:12;;;;;;;16.27;12.65;;;8.30;99.90;;;;;;4977545;28;20078;-64
2023/04/19 01:17:38;;;;;;;15.23;12.15;;;8.30;99.90;;;;;;4995252;28;20089;-64
2023/04/19 01:20:06;;;;;;;16.77;12.23;;;8.30;99.90;;;;;;4994998;28;20089;-65
2023/04/19 01:22:36;;;;;;;15.18;11.32;;;8.30;99.90;;;;;;4977688;28;20089;-65
2023/04/19 01:25:03;;;;;;;16.80;11.02;;;8.20;99.90;;;;;;4995111;28;20042;-65
2023/04/19 01:27:30;;;;;;;14.77;11.48;;;8.30;99.90;;;;;;4994497;28;20078;-65
2023/04/19 01:29:56;;;;;;;15.00;11.48;;;8.30;99.90;;;;;;4993672;28;20138;-64
2023/04/19 01:32:25;;;;;;;13.25;10.00;;;8.40;99.90;;;;;;4974206;28;20093;-65
2023/04/19 01:34:51;;;;;;;14.18;10.48;;;8.40;99.90;;;;;;4974192;28;20363;-65
2023/04/19 01:37:18;;;;;;;13.18;10.98;;;8.40;99.90;;;;;;4975361;28;20150;-65
2023/04/19 01:39:44;;;;;;;16.35;10.55;;;8.40;99.90;;;;;;4975574;28;20187;-65
2023/04/19 01:42:10;;;;;;;15.85;11.48;;;8.50;99.90;;;;;;4981806;28;20427;-64
2023/04/19 01:44:36;;;;;;;14.27;11.27;;;8.50;99.90;;;;;;4978060;28;20423;-64
2023/04/19 01:47:04;;;;;;;13.93;10.88;;;8.50;99.90;;;;;;4995174;28;20137;-64
2023/04/19 01:49:30;;;;;;;15.73;10.80;;;8.50;99.90;;;;;;4995148;28;20046;-66
2023/04/19 01:51:56;;;;;;;13.63;10.00;;;8.50;99.90;;;;;;4977535;28;20050;-65
2023/04/19 01:54:22;;;;;;;13.70;10.88;;;8.50;99.90;;;;;;4994849;28;20086;-64
2023/04/19 01:56:49;;;;;;;11.90;9.57;;;8.60;99.90;;;;;;4977273;28;20141;-65
2023/04/19 01:59:15;;;;;;;15.88;11.15;;;8.50;99.90;;;;;;4994729;28;20050;-65
2023/04/19 02:01:41;;;;;;;14.93;10.23;;;8.60;99.90;;;;;;4960548;28;20050;-65
2023/04/19 02:04:10;;;;;;;13.13;10.00;;;8.50;99.90;;;;;;4994410;28;20430;-65
2023/04/19 02:06:36;;;;;;;12.02;10.10;;;8.50;99.90;;;;;;4964413;28;20057;-65
2023/04/19 02:09:03;;;;;;;11.43;9.75;;;8.50;99.90;;;;;;4975528;28;20047;-65
2023/04/19 02:11:29;;;;;;;12.00;8.60;;;8.50;99.90;;;;;;4957707;28;20484;-64
2023/04/19 02:13:55;;;;;;;12.05;9.38;;;8.50;99.90;;;;;;4958078;28;20051;-64
2023/04/19 02:16:22;;;;;;;11.60;8.93;;;8.50;99.90;;;;;;4965673;28;20101;-65
2023/04/19 02:18:48;;;;;;;11.57;9.18;;;8.50;99.90;;;;;;4974069;28;20452;-64
2023/04/19 02:21:14;;;;;;;12.52;9.43;;;8.60;99.90;;;;;;4975481;28;20043;-65
2023/04/19 02:23:40;;;;;;;13.23;9.32;;;8.60;99.90;;;;;;4973716;28;20078;-64
2023/04/19 02:26:07;;;;;;;10.40;9.00;;;8.60;99.90;;;;;;4973677;28;20061;-65
2023/04/19 02:28:33;;;;;;;13.20;8.32;;;8.60;99.90;;;;;;4974511;28;20411;-65
2023/04/19 02:31:04;;;;;;;11.20;9.07;;;8.60;99.90;;;;;;4974715;28;20074;-65
2023/04/19 02:33:30;;;;;;;11.48;8.55;;;8.60;99.90;;;;;;4973724;28;20086;-65
2023/04/19 02:35:57;;;;;;;11.80;9.40;;;8.60;99.90;;;;;;4973295;28;20519;-65
2023/04/19 02:38:23;;;;;;;10.20;9.10;;;8.50;99.90;;;;;;4972976;28;20082;-65
2023/04/19 02:40:49;;;;;;;11.48;8.70;;;8.50;99.90;;;;;;4973270;28;20502;-64
2023/04/19 02:43:15;;;;;;;12.32;8.60;;;8.50;99.90;;;;;;4974621;28;20069;-65
2023/04/19 02:45:42;;;;;;;11.18;9.07;;;8.60;99.90;;;;;;4973377;28;20058;-65
2023/04/19 02:48:08;;;;;;;11.43;8.23;;;8.50;99.90;;;;;;4973267;28;20050;-65
2023/04/19 02:50:37;;;;;;;13.20;9.40;;;8.60;99.90;;;;;;4974571;28;20388;-65
2023/04/19 02:53:04;;;;;;;10.32;7.88;;;8.60;99.90;;;;;;4973101;28;20376;-65
2023/04/19 02:55:30;;;;;;;13.98;9.63;;;8.50;99.90;;;;;;4974411;28;20050;-65
2023/04/19 02:57:56;;;;;;;11.43;9.07;;;8.50;99.90;;;;;;4974724;28;20089;-66
2023/04/19 03:00:32;;;;;;;12.10;8.57;;;8.50;99.90;;;;;;4973356;28;20079;-64
2023/04/19 03:02:58;;;;;;;10.65;8.82;;;8.50;99.90;;;;;;4974649;28;20058;-64
2023/04/19 03:05:24;;;;;;;12.02;7.82;;;8.50;99.90;;;;;;4974092;28;20387;-64
2023/04/19 03:07:50;;;;;;;11.57;9.20;;;8.40;99.90;;;;;;4973236;28;20066;-64
2023/04/19 03:10:17;;;;;;;12.65;8.32;;;8.50;99.90;;;;;;4973972;28;20075;-64
2023/04/19 03:12:43;;;;;;;10.88;7.72;;;8.40;99.90;;;;;;4956913;28;20070;-66
2023/04/19 03:15:10;;;;;;;10.35;8.13;;;8.40;99.90;;;;;;4975215;28;20058;-64
2023/04/19 03:17:36;;;;;;;11.93;9.07;;;8.40;99.90;;;;;;4976250;28;20082;-64
2023/04/19 03:20:08;;;;;;;13.57;8.02;;;8.30;99.90;;;;;;4993288;28;20054;-65
2023/04/19 03:22:35;;;;;;;11.75;8.70;;;8.30;99.90;;;;;;4993184;28;20494;-65
2023/04/19 03:25:01;;;;;;;10.65;7.97;;;8.30;99.90;;;;;;4993302;28;20206;-65
2023/04/19 03:27:27;;;;;;;11.27;8.25;;;8.20;99.90;;;;;;4993252;28;20428;-64
2023/04/19 03:29:55;;;;;;;10.98;7.97;;;8.20;99.90;;;;;;4993671;28;20104;-64
2023/04/19 03:32:21;;;;;;;11.57;8.27;;;8.10;99.90;;;;;;4978626;28;20089;-65
2023/04/19 03:34:48;;;;;;;9.18;7.38;;;8.00;99.90;;;;;;4993553;28;20046;-65
2023/04/19 03:37:14;;;;;;;11.20;7.90;;;8.00;99.90;;;;;;4993397;28;20050;-65
2023/04/19 03:39:40;;;;;;;13.13;8.82;;;7.90;99.90;;;;;;4993386;28;20097;-64
2023/04/19 03:42:06;;;;;;;9.23;7.35;;;7.80;99.90;;;;;;4992002;28;20086;-65
2023/04/19 03:44:33;;;;;;;11.77;8.57;;;7.80;99.90;;;;;;4993431;28;20189;-65
2023/04/19 03:46:59;;;;;;;11.15;9.02;;;7.80;99.90;;;;;;4991582;28;20064;-64
2023/04/19 03:49:25;;;;;;;11.27;8.73;;;7.70;99.90;;;;;;4993886;28;20088;-65
2023/04/19 03:52:24;;;;;;;13.00;7.97;;;7.70;99.90;;;;;;4993502;28;20389;-64
2023/04/19 03:54:51;;;;;;;11.27;9.38;;;7.70;99.90;;;;;;4992289;28;20064;-64
2023/04/19 03:57:17;;;;;;;11.15;9.23;;;7.70;99.90;;;;;;4993011;28;20435;-64
2023/04/19 03:59:43;;;;;;;11.52;8.85;;;7.60;99.90;;;;;;4993052;28;20132;-65
2023/04/19 04:02:09;;;;;;;10.07;7.78;;;7.50;99.90;;;;;;4993194;28;20046;-65
2023/04/19 04:04:35;;;;;;;14.13;9.63;;;7.50;99.90;;;;;;4992312;28;20088;-65
2023/04/19 04:07:02;;;;;;;11.88;9.13;;;7.40;99.90;;;;;;4992152;28;20141;-64
2023/04/19 04:09:28;;;;;;;11.27;7.97;;;7.30;99.90;;;;;;4992331;28;20133;-64
2023/04/19 04:11:54;;;;;;;12.18;9.30;;;7.30;99.90;;;;;;4991933;28;20203;-64
2023/04/19 04:14:21;;;;;;;11.52;8.75;;;7.20;99.90;;;;;;4976359;28;20047;-65
2023/04/19 04:16:47;;;;;;;12.55;9.52;;;7.20;99.90;;;;;;4975625;28;20080;-64
2023/04/19 04:19:13;;;;;;;11.98;9.20;;;7.10;99.90;;;;;;4993541;28;20050;-64
2023/04/19 04:21:40;;;;;;;13.05;8.93;;;7.10;99.90;;;;;;4976074;28;20179;-64
2023/04/19 04:24:06;;;;;;;13.35;9.25;;;7.00;99.90;;;;;;4975373;28;20050;-64
2023/04/19 04:26:34;;;;;;;10.88;9.18;;;7.00;99.90;;;;;;4992447;28;20086;-66
2023/04/19 04:29:03;;;;;;;13.32;8.93;;;7.00;99.90;;;;;;4975417;28;20054;-66
2023/04/19 04:31:30;;;;;;;14.60;9.93;;;7.00;99.90;;;;;;4976451;28;20137;-65
2023/04/19 04:33:57;;;;;;;13.10;9.45;;;6.90;99.90;;;;;;4960084;28;20092;-64
2023/04/19 04:36:32;;;;;;;12.98;9.43;;;6.90;99.90;;;;;;4992936;28;20474;-64
2023/04/19 04:39:33;;;;;;;12.85;8.63;;;6.90;99.90;;;;;;4993304;28;20108;-64
2023/04/19 04:42:00;;;;;;;11.75;9.20;;;6.90;99.90;;;;;;4976106;28;20102;-65
2023/04/19 04:44:27;;;;;;;11.88;8.43;;;6.80;99.90;;;;;;4959685;28;20405;-64
2023/04/19 04:46:54;;;;;;;11.43;7.95;;;6.80;99.90;;;;;;4976029;28;20355;-64
2023/04/19 04:49:20;;;;;;;11.07;8.18;;;6.70;99.90;;;;;;4976100;28;20058;-64
2023/04/19 04:51:46;;;;;;;12.95;9.63;;;6.70;99.90;;;;;;4992919;28;20078;-65
2023/04/19 04:54:12;;;;;;;10.45;8.00;;;6.70;99.90;;;;;;4991521;28;20054;-64
2023/04/19 04:56:39;;;;;;;11.02;8.43;;;6.70;99.90;;;;;;4983232;28;20043;-66
2023/04/19 04:59:11;;;;;;;11.20;9.05;;;6.60;99.90;;;;;;4991786;28;20054;-65
2023/04/19 05:01:37;;;;;;;12.38;9.85;;;6.70;99.90;;;;;;4975109;28;20062;-66
2023/04/19 05:04:04;;;;;;;11.75;9.25;;;6.70;99.90;;;;;;4978814;28;20133;-65
2023/04/19 05:06:30;;;;;;;13.80;8.80;;;6.60;99.90;;;;;;4979170;28;20065;-65
2023/04/19 05:08:57;;;;;;;9.43;7.25;;;6.60;99.90;;;;;;4984312;28;20042;-65
2023/04/19 05:11:23;;;;;;;11.35;8.38;;;6.70;99.90;;;;;;4963696;28;20054;-65
2023/04/19 05:13:49;;;;;;;9.68;7.38;;;6.60;99.90;;;;;;4982091;28;20093;-65
2023/04/19 05:16:15;;;;;;;9.90;7.45;;;6.60;99.90;;;;;;4963162;28;20054;-65
2023/04/19 05:18:42;;;;;;;8.93;6.47;;;6.70;99.90;;;;;;4978565;28;20141;-65
2023/04/19 05:21:09;;;;;;;10.60;6.72;;;6.60;99.90;;;;;;4979025;28;20085;-65
2023/04/19 05:23:36;;;;;;;11.15;6.85;;;6.70;99.90;;;;;;4962887;28;20066;-65
2023/04/19 05:26:03;;;;;;;10.23;7.07;;;6.70;99.90;;;;;;4995786;28;20092;-65
2023/04/19 05:28:29;;;;;;;11.50;7.90;;;6.80;99.90;;;;;;4996249;28;20423;-65
2023/04/19 05:30:55;;;;;;;9.60;7.05;;;6.90;99.90;;;;;;4996659;28;20082;-65
2023/04/19 05:33:22;;;;;;;11.23;6.47;;;7.20;99.90;;;;;;4978489;28;20320;-65
2023/04/19 05:35:48;;;;;;;9.27;7.60;;;7.30;99.90;;;;;;4995234;28;20475;-65
2023/04/19 05:38:14;;;;;;;9.98;6.68;;;7.60;99.90;;;;;;4978563;28;20146;-65
2023/04/19 05:40:40;;;;;;;10.07;7.03;;;8.20;99.90;;;;;;4978427;28;20094;-64
2023/04/19 05:43:06;;;;;;;8.52;6.68;;;8.70;99.90;;;;;;4978080;28;20082;-64
2023/04/19 05:45:33;;;;;;;11.60;6.63;;;9.10;99.90;;;;;;4978138;28;20090;-65
2023/04/19 05:47:59;;;;;;;10.57;7.88;;;9.40;99.90;;;;;;4978211;28;20094;-64
2023/04/19 05:50:25;;;;;;;8.95;6.55;;;9.70;99.90;;;;;;4978677;28;20132;-66
2023/04/19 05:52:51;;;;;;;8.50;6.55;;;10.10;99.90;;;;;;4977917;28;20057;-66
2023/04/19 05:55:18;;;;;;;10.05;7.40;;;10.30;99.90;;;;;;4995534;28;20081;-65
2023/04/19 05:57:44;;;;;;;10.05;6.90;;;10.40;99.90;;;;;;4962685;28;20058;-65
2023/04/19 06:00:11;;;;;;;6.97;6.25;;;10.20;99.90;;;;;;4978369;28;20145;-65
2023/04/19 06:02:37;;;;;;;9.60;6.93;;;10.40;99.90;;;;;;4995874;28;20427;-65
2023/04/19 06:05:05;;;;;;;8.85;6.28;;;10.60;99.90;;;;;;4978913;28;20065;-65
2023/04/19 06:07:31;;;;;;;9.65;7.22;;;10.60;99.90;;;;;;4977919;28;20202;-66
2023/04/19 06:09:57;;;;;;;10.45;6.65;;;10.80;99.90;;;;;;4961618;28;20371;-65
2023/04/19 06:12:24;;;;;;;10.98;6.30;;;11.10;99.90;;;;;;4978005;28;20082;-65
2023/04/19 06:14:51;;;;;;;7.90;6.35;;;11.20;99.90;;;;;;4994371;28;20057;-65
2023/04/19 06:17:23;;;;;;;8.25;6.15;;;11.20;99.90;;;;;;4975224;28;20066;-65
2023/04/19 06:19:53;;;;;;;9.70;6.30;;;11.60;99.90;;;;;;4976833;28;20141;-65
2023/04/19 06:22:20;;;;;;;9.00;5.97;;;11.80;99.90;;;;;;4975043;28;20372;-65
2023/04/19 06:24:46;;;;;;;10.20;5.28;;;11.90;99.90;;;;;;4976212;28;20050;-64
2023/04/19 06:27:15;;;;;;;6.63;5.22;;;12.20;99.90;;;;;;4975883;28;20057;-64
2023/04/19 06:29:41;;;;;;;6.78;5.70;;;12.40;99.90;;;;;;4975741;28;20065;-64
2023/04/19 06:32:08;;;;;;;7.15;4.90;;;12.30;99.90;;;;;;4958370;28;20051;-65
2023/04/19 06:34:34;;;;;;;8.20;5.20;;;12.30;99.90;;;;;;4974488;28;20082;-65
2023/04/19 06:37:00;;;;;;;7.35;5.28;;;11.90;99.30;;;;;;4975573;28;20065;-65
2023/04/19 06:39:27;;;;;;;7.30;5.00;;;12.00;99.90;;;;;;4974210;28;20181;-65
2023/04/19 06:41:53;;;;;;;5.82;4.75;;;11.90;99.90;;;;;;4974988;28;20047;-66
2023/04/19 06:44:19;;;;;;;8.43;4.78;;;12.30;99.30;;;;;;4975847;28;20054;-65
2023/04/19 06:46:46;;;;;;;7.05;5.60;;;12.30;99.50;;;;;;4974369;28;20150;-65
2023/04/19 06:49:12;;;;;;;9.10;4.93;;;12.50;98.80;;;;;;4974177;28;20058;-65
2023/04/19 06:51:39;;;;;;;7.57;4.97;;;12.30;98.50;;;;;;4958565;28;20165;-66
2023/04/19 06:54:06;;;;;;;6.35;4.50;;;12.50;99.00;;;;;;4975474;28;20050;-65
2023/04/19 06:56:39;;;;;;;7.82;5.50;;;12.40;99.20;;;;;;4974398;28;20113;-65
2023/04/19 06:59:06;;;;;;;6.05;5.15;;;12.40;98.70;;;;;;4974438;28;20106;-65
2023/04/19 07:01:32;;;;;;;7.00;4.80;;;12.50;98.20;;;;;;4974372;28;20090;-65
2023/04/19 07:03:58;;;;;;;6.97;5.05;;;12.50;98.50;;;;;;4975651;28;20051;-65
2023/04/19 07:06:25;;;;;;;7.03;4.45;;;12.50;98.70;;;;;;4974057;28;20061;-65
2023/04/19 07:08:52;;;;;;;6.80;4.78;;;12.60;98.30;;;;;;4974136;28;20039;-65
2023/04/19 07:11:18;;;;;;;8.43;5.13;;;12.80;98.30;;;;;;4975188;28;20504;-65
2023/04/19 07:13:44;;;;;;;5.97;5.30;;;13.00;97.80;;;;;;4974721;28;20061;-65
2023/04/19 07:16:12;;;;;;;6.38;4.32;;;13.00;97.20;;;;;;4973279;28;20149;-66
2023/04/19 07:18:39;;;;;;;6.70;3.72;;;13.10;97.80;;;;;;4975033;28;20082;-65
2023/04/19 07:24:29;;;;;;;6.38;3.83;;;12.20;97.20;;;;;;4973587;28;20050;-65
2023/04/19 07:26:56;;;;;;;4.90;3.90;;;11.80;97.30;;;;;;4974710;28;20082;-65
2023/04/19 07:29:22;;;;;;;5.28;3.85;;;11.60;97.30;;;;;;4957319;28;20082;-65
2023/04/19 07:31:48;;;;;;;5.97;4.05;;;11.40;97.40;;;;;;4973898;28;20077;-65
2023/04/19 07:34:15;;;;;;;6.32;3.78;;;11.40;98.00;;;;;;4974282;28;20452;-66
2023/04/19 07:36:41;;;;;;;7.90;3.85;;;11.30;97.50;;;;;;4973564;28;20117;-65
2023/04/19 07:39:08;;;;;;;5.97;3.33;;;11.20;97.40;;;;;;4974561;28;20154;-65
2023/04/19 07:41:34;;;;;;;4.18;2.90;;;11.20;97.30;;;;;;4974304;28;20501;-65
2023/04/19 07:44:00;;;;;;;3.70;3.15;;;11.20;97.40;;;;;;4974557;28;20051;-65
2023/04/19 07:46:27;;;;;;;5.05;2.75;;;11.40;97.70;;;;;;4974236;28;20388;-65
2023/04/19 07:48:53;;;;;;;4.55;3.17;;;11.60;97.60;;;;;;4974539;28;20153;-65
2023/04/19 07:51:19;;;;;;;5.65;2.83;;;11.60;97.40;;;;;;4973352;28;20093;-65
2023/04/19 07:53:47;;;;;;;3.85;2.65;;;11.60;97.10;;;;;;4974235;28;20111;-66
2023/04/19 07:56:14;;;;;;;4.38;3.00;;;11.50;96.40;;;;;;4973768;28;20086;-66
2023/04/19 07:58:40;;;;;;;3.65;2.63;;;11.40;96.10;;;;;;4956929;28;20050;-65
2023/04/19 08:01:16;;;;;;;4.07;2.72;;;11.40;96.40;;;;;;4973450;28;20081;-66
2023/04/19 08:03:42;;;;;;;4.15;2.60;;;11.50;96.50;;;;;;4974082;28;20351;-65
2023/04/19 08:06:13;;;;;;;3.47;2.80;;;11.60;96.60;;;;;;4973248;28;20087;-65
2023/04/19 08:08:39;;;;;;;5.10;3.03;;;11.60;96.10;;;;;;4973008;28;20058;-65
2023/04/19 08:11:06;;;;;;;4.20;2.55;;;11.50;96.20;;;;;;4973067;28;20083;-65
2023/04/19 08:13:32;;;;;;;3.75;2.42;;;11.50;95.80;;;;;;4972740;28;20459;-66
2023/04/19 08:15:58;;;;;;;5.47;2.40;;;11.70;95.60;;;;;;4972132;28;20046;-66
2023/04/19 08:18:25;;;;;;;5.10;2.42;;;11.80;96.20;;;;;;4972117;28;20146;-66
2023/04/19 08:20:51;;;;;;;4.88;2.88;;;11.80;95.70;;;;;;4971998;28;20086;-65
2023/04/19 08:23:18;;;;;;;3.33;2.10;;;12.00;95.80;;;;;;4973170;28;20055;-65
2023/04/19 08:25:44;;;;;;;3.60;2.50;;;12.10;95.60;;;;;;4972047;28;20466;-67
2023/04/19 08:28:11;;;;;;;4.40;2.47;;;12.00;95.00;;;;;;4973042;28;20047;-65
2023/04/19 08:30:37;;;;;;;4.82;2.33;;;12.00;94.70;;;;;;4973044;28;20178;-65
2023/04/19 08:33:03;;;;;;;5.32;2.40;;;12.10;95.20;;;;;;4971851;28;20054;-66
2023/04/19 08:35:30;;;;;;;3.30;2.20;;;12.20;95.50;;;;;;4972928;28;20070;-66
2023/04/19 08:37:56;;;;;;;3.55;2.22;;;12.30;94.90;;;;;;4974197;28;20050;-66
2023/04/19 08:40:23;;;;;;;4.25;2.78;;;12.40;95.00;;;;;;4976312;28;20400;-66
2023/04/19 08:42:49;;;;;;;3.60;2.40;;;12.50;94.90;;;;;;4976409;28;20065;-66
2023/04/19 08:45:15;;;;;;;4.38;2.50;;;12.60;94.40;;;;;;4975142;28;20055;-66
2023/04/19 08:47:43;;;;;;;3.08;2.20;;;12.50;94.30;;;;;;4974918;28;20359;-65
2023/04/19 08:50:09;;;;;;;5.05;2.30;;;12.50;94.30;;;;;;4974737;28;20055;-66
2023/04/19 08:52:36;;;;;;;3.67;2.60;;;12.50;93.80;;;;;;4974831;28;20359;-65
2023/04/19 08:55:04;;;;;;;4.90;3.03;;;12.40;93.40;;;;;;4976255;28;20391;-65
2023/04/19 08:57:31;;;;;;;3.80;2.33;;;12.50;93.40;;;;;;4974996;28;20058;-65
2023/04/19 08:59:59;;;;;;;4.97;3.13;;;12.50;93.60;;;;;;4975086;28;20149;-65
2023/04/19 09:02:26;;;;;;;3.55;2.72;;;12.50;93.20;;;;;;4976188;28;20047;-65
2023/04/19 09:04:52;;;;;;;4.80;3.00;;;12.60;93.50;;;;;;4975630;28;20133;-66
2023/04/19 09:07:26;;;;;;;4.72;2.83;;;12.60;92.90;;;;;;4974766;28;20050;-65
2023/04/19 09:10:13;;;;;;;5.43;2.90;;;12.70;93.40;;;;;;4974633;28;20060;-66
2023/04/19 09:12:40;;;;;;;4.57;3.03;;;12.80;93.00;;;;;;4974630;28;20050;-65
2023/04/19 09:15:08;;;;;;;4.18;3.20;;;12.80;93.10;;;;;;4974234;28;20055;-66
2023/04/19 09:17:35;;;;;;;4.50;2.90;;;12.90;92.60;;;;;;4936200;28;1181732;-66
2023/04/19 09:20:03;;;;;;;4.95;3.10;;;12.90;92.00;;;;;;4976763;28;20455;-65
2023/04/19 09:22:30;;;;;;;7.78;3.28;;;12.90;91.40;;;;;;4959774;28;20145;-66
2023/04/19 09:24:58;;;;;;;4.18;3.10;;;12.90;91.20;;;;;;4959917;28;20089;-65
2023/04/19 09:27:30;;;;;;;4.57;3.17;;;12.90;91.00;;;;;;4976863;28;20113;-66
2023/04/19 09:29:59;;;;;;;4.78;3.28;;;12.90;91.10;;;;;;4959417;28;20054;-65
2023/04/19 09:32:26;;;;;;;5.63;3.78;;;13.00;90.30;;;;;;4959693;28;20109;-65
2023/04/19 09:34:58;;;;;;;5.70;3.72;;;13.00;90.50;;;;;;4977225;28;20057;-65
2023/04/19 09:37:25;;;;;;;6.50;3.35;;;13.10;90.00;;;;;;4977507;28;20461;-66
2023/04/19 09:39:54;;;;;;;5.88;3.20;;;13.10;88.30;;;;;;4943590;28;20058;-66
2023/04/19 09:42:20;;;;;;;3.88;3.20;;;13.10;89.40;;;;;;4960162;28;20090;-66
2023/04/19 09:45:12;;;;;;;4.43;2.85;;;13.10;88.70;;;;;;4977006;28;20078;-66
2023/04/19 09:48:03;;;;;;;4.78;3.15;;;13.20;89.10;;;;;;4957857;28;20061;-66
2023/04/19 09:50:29;;;;;;;3.88;2.67;;;13.20;87.50;;;;;;4959518;28;20066;-66
2023/04/19 09:52:57;;;;;;;5.63;4.07;;;13.50;89.50;;;;;;4959994;28;20132;-66
2023/04/19 09:55:25;;;;;;;5.28;3.35;;;13.60;89.60;;;;;;4959044;28;20047;-66
2023/04/19 09:57:52;;;;;;;4.45;3.28;;;13.50;89.30;;;;;;4959568;28;20090;-66
2023/04/19 10:00:20;;;;;;;3.58;2.97;;;13.60;86.60;;;;;;4975899;28;20495;-66
2023/04/19 10:02:54;;;;;;;5.07;3.70;;;13.70;87.40;;;;;;4959532;28;20340;-65
2023/04/19 10:05:21;;;;;;;4.75;2.90;;;13.50;86.10;;;;;;4959385;28;20047;-66
2023/04/19 10:07:51;;;;;;;5.72;3.33;;;13.50;85.60;;;;;;4976403;28;20093;-66
2023/04/19 10:10:19;;;;;;;5.68;3.40;;;13.50;84.90;;;;;;4959150;28;20046;-65
2023/04/19 10:12:50;;;;;;;4.70;4.03;;;13.60;85.50;;;;;;4976496;28;20046;-66
2023/04/19 10:15:18;;;;;;;4.38;3.10;;;13.60;86.80;;;;;;4958896;28;20109;-66
2023/04/19 10:17:44;;;;;;;4.72;2.95;;;13.70;88.40;;;;;;4958516;28;20105;-66
2023/04/19 10:20:19;;;;;;;4.63;3.50;;;13.80;89.30;;;;;;4975803;28;20082;-66
2023/04/19 10:22:45;;;;;;;6.53;3.10;;;13.90;87.00;;;;;;4958634;28;20065;-66
2023/04/19 10:25:14;;;;;;;3.90;3.00;;;14.00;86.10;;;;;;4958855;28;20152;-65
2023/04/19 10:27:45;;;;;;;5.07;3.20;;;13.90;85.50;;;;;;4958380;28;20539;-65
2023/04/19 10:30:22;;;;;;;4.75;3.53;;;14.00;86.50;;;;;;4958269;28;20486;-65
2023/04/19 10:32:56;;;;;;;5.55;3.10;;;14.00;85.90;;;;;;4958289;28;20046;-67
2023/04/19 10:35:43;;;;;;;5.70;3.03;;;14.00;85.30;;;;;;4958457;28;20116;-66
2023/04/19 10:38:12;;;;;;;4.53;2.63;;;14.10;84.90;;;;;;4975841;28;20165;-67
2023/04/19 10:40:54;;;;;;;5.97;3.05;;;14.10;84.40;;;;;;4975597;28;20173;-66
2023/04/19 10:43:25;;;;;;;6.35;3.28;;;14.30;86.00;;;;;;4975266;28;20134;-65
2023/04/19 10:45:52;;;;;;;4.13;2.80;;;14.20;83.80;;;;;;4958276;28;20288;-65
2023/04/19 10:48:32;;;;;;;3.72;2.90;;;14.20;84.70;;;;;;4958602;28;20051;-65
2023/04/19 10:51:01;;;;;;;4.40;2.92;;;14.10;85.60;;;;;;4958613;28;20106;-65
2023/04/19 10:53:44;;;;;;;3.78;3.38;;;14.10;85.30;;;;;;4975346;28;20461;-66
2023/04/19 10:56:18;;;;;;;4.25;3.17;;;14.20;86.20;;;;;;4958016;28;20129;-65
2023/04/19 10:59:00;;;;;;;3.47;2.75;;;14.10;86.70;;;;;;4974763;28;20070;-66
2023/04/19 11:01:44;;;;;;;5.78;2.80;;;14.20;87.40;;;;;;4974440;28;20483;-65
2023/04/19 11:04:49;;;;;;;4.40;3.00;;;14.30;86.60;;;;;;4975305;28;20344;-66
2023/04/19 11:07:17;;;;;;;3.50;2.88;;;14.40;85.30;;;;;;4925469;28;20086;-65
2023/04/19 11:09:47;;;;;;;3.95;2.58;;;14.30;84.70;;;;;;4958106;28;20077;-65
2023/04/19 11:12:15;;;;;;;3.72;2.67;;;14.40;85.60;;;;;;4974923;28;20113;-66
2023/04/19 11:14:43;;;;;;;5.03;2.63;;;14.40;84.60;;;;;;4974622;28;20064;-66
2023/04/19 11:17:24;;;;;;;4.22;2.60;;;14.50;85.50;;;;;;4974386;28;20451;-65
2023/04/19 11:20:02;;;;;;;4.57;2.97;;;14.60;84.80;;;;;;4974541;28;20455;-65
2023/04/19 11:22:34;;;;;;;3.45;2.60;;;14.60;83.80;;;;;;4957416;28;20137;-66
2023/04/19 11:25:05;;;;;;;6.82;3.67;;;14.60;84.50;;;;;;4957513;28;20050;-65
2023/04/19 11:27:33;;;;;;;3.85;2.70;;;14.60;83.00;;;;;;4957273;28;20118;-66
2023/04/19 11:30:08;;;;;;;5.28;2.80;;;14.70;81.50;;;;;;4957587;28;20451;-65
2023/04/19 11:32:35;;;;;;;6.28;3.47;;;14.60;81.50;;;;;;4974643;28;20089;-65
2023/04/19 11:35:07;;;;;;;4.72;2.80;;;14.70;82.30;;;;;;4972792;28;20070;-65
2023/04/19 11:37:35;;;;;;;4.53;2.78;;;14.70;82.10;;;;;;4974877;28;20101;-65
2023/04/19 11:40:01;;;;;;;4.22;2.80;;;14.80;82.20;;;;;;4973627;28;20089;-65
2023/04/19 11:42:28;;;;;;;3.67;2.90;;;14.80;81.60;;;;;;4974171;28;20207;-66
2023/04/19 11:44:56;;;;;;;4.78;2.80;;;14.90;81.90;;;;;;4972945;28;20066;-66
2023/04/19 11:47:22;;;;;;;5.72;2.83;;;15.00;82.50;;;;;;4973375;28;20081;-66
2023/04/19 11:49:49;;;;;;;9.18;3.25;;;15.00;83.10;;;;;;4974458;28;20145;-65
2023/04/19 11:52:24;;;;;;;5.00;3.25;;;15.10;81.10;;;;;;4973383;28;20142;-65
2023/04/19 11:54:51;;;;;;;3.50;2.55;;;15.20;81.60;;;;;;4974974;28;20089;-65
2023/04/19 11:57:30;;;;;;;5.53;3.00;;;15.20;81.20;;;;;;4973529;28;20043;-66
2023/04/19 12:00:10;;;;;;;7.28;3.03;;;15.20;82.10;;;;;;4957304;28;20348;-64
2023/04/19 12:02:38;;;;;;;4.00;2.78;;;15.30;82.20;;;;;;4957278;28;20154;-65
2023/04/19 12:05:13;;;;;;;4.10;2.80;;;15.40;82.50;;;;;;4973657;28;20139;-65
2023/04/19 12:08:02;;;;;;;3.70;3.00;;;15.30;81.70;;;;;;4974179;28;20046;-65
2023/04/19 12:10:32;;;;;;;3.67;2.75;;;15.30;80.10;;;;;;4974250;28;20347;-65
2023/04/19 12:12:58;;;;;;;3.75;2.83;;;15.50;80.90;;;;;;4956638;28;20059;-64
2023/04/19 12:15:44;;;;;;;3.47;2.70;;;15.50;80.30;;;;;;4958353;28;20051;-65
2023/04/19 12:18:13;;;;;;;4.90;2.55;;;15.60;80.50;;;;;;4994129;28;20296;-64
2023/04/19 12:20:47;;;;;;;3.58;2.80;;;15.50;80.60;;;;;;4976661;28;20450;-66
2023/04/19 12:23:17;;;;;;;3.47;2.45;;;15.40;79.10;;;;;;4976594;28;20101;-65
2023/04/19 12:25:45;;;;;;;5.43;2.92;;;15.30;79.70;;;;;;4960519;28;20062;-65
2023/04/19 12:28:12;;;;;;;4.35;2.60;;;15.30;80.30;;;;;;4993483;28;20055;-65
2023/04/19 12:30:39;;;;;;;4.78;2.90;;;15.20;81.30;;;;;;4993584;28;20046;-65
2023/04/19 12:33:06;;;;;;;3.28;2.67;;;15.30;82.60;;;;;;4976190;28;20057;-65
2023/04/19 12:35:34;;;;;;;5.35;2.58;;;15.40;80.80;;;;;;4976050;28;20153;-65
2023/04/19 12:38:01;;;;;;;4.57;2.50;;;15.30;80.90;;;;;;4976008;28;20438;-65
2023/04/19 12:40:29;;;;;;;5.20;2.47;;;15.30;81.70;;;;;;4976305;28;20058;-66
2023/04/19 12:42:55;;;;;;;4.30;2.97;;;15.50;81.60;;;;;;4985674;28;20066;-66
2023/04/19 12:45:21;;;;;;;5.28;2.90;;;15.50;80.50;;;;;;4972860;28;20137;-65
2023/04/19 12:47:48;;;;;;;4.85;2.70;;;15.40;80.20;;;;;;4972638;28;20074;-66
2023/04/19 12:50:15;;;;;;;6.47;3.08;;;15.30;80.80;;;;;;4973731;28;20051;-65
2023/04/19 12:52:43;;;;;;;7.25;3.08;;;15.30;81.50;;;;;;4972566;28;20443;-65
2023/04/19 12:55:14;;;;;;;3.78;3.00;;;15.40;81.80;;;;;;4973703;28;20129;-65